sensor_id;sensor_type;location;lat;lon;timestamp;temperature;humidity
4673;DHT22;61885;53.560;9.940;2022-09-09T00:00:49;14.60;99.90
4673;DHT22;61885;53.560;9.940;2022-09-09T00:03:24;14.60;99.90
4673;DHT22;61885;53.560;9.940;2022-09-09T00:06:01;14.60;99.90
4673;DHT22;61885;53.560;9.940;2022-09-09T00:08:39;14.50;99.90
4673;DHT22;61885;53.560;9.940;2022-09-09T00:11:13;14.50;99.90
4673;DHT22;61885;53.560;9.940;2022-09-09T00:13:50;14.50;99.90
4673;DHT22;61885;53.560;9.940;2022-09-09T00:16:24;14.50;99.90
4673;DHT22;61885;53.560;9.940;2022-09-09T00:19:00;14.50;99.90
4673;DHT22;61885;53.560;9.940;2022-09-09T00:21:33;14.50;99.90
4673;DHT22;61885;53.560;9.940;2022-09-09T00:24:11;14.40;99.90
4673;DHT22;61885;53.560;9.940;2022-09-09T00:26:48;14.50;99.90
4673;DHT22;61885;53.560;9.940;2022-09-09T00:29:28;14.50;99.90
4673;DHT22;61885;53.560;9.940;2022-09-09T00:32:11;14.60;99.90
4673;DHT22;61885;53.560;9.940;2022-09-09T00:34:48;14.60;99.90
4673;DHT22;61885;53.560;9.940;2022-09-09T00:37:19;14.70;99.90
4673;DHT22;61885;53.560;9.940;2022-09-09T00:39:52;14.70;99.90
4673;DHT22;61885;53.560;9.940;2022-09-09T00:42:25;14.70;99.90
4673;DHT22;61885;53.560;9.940;2022-09-09T00:45:05;14.70;99.90
4673;DHT22;61885;53.560;9.940;2022-09-09T00:47:44;14.80;99.90
4673;DHT22;61885;53.560;9.940;2022-09-09T00:50:37;14.80;99.90
4673;DHT22;61885;53.560;9.940;2022-09-09T00:53:19;14.80;99.90
4673;DHT22;61885;53.560;9.940;2022-09-09T00:55:57;14.80;99.90
4673;DHT22;61885;53.560;9.940;2022-09-09T00:58:30;14.80;99.90
4673;DHT22;61885;53.560;9.940;2022-09-09T01:01:05;14.80;99.90
4673;DHT22;61885;53.560;9.940;2022-09-09T01:03:37;14.90;99.90
4673;DHT22;61885;53.560;9.940;2022-09-09T01:06:16;14.90;99.90
4673;DHT22;61885;53.560;9.940;2022-09-09T01:09:05;14.90;99.90
4673;DHT22;61885;53.560;9.940;2022-09-09T01:11:45;15.00;99.90
4673;DHT22;61885;53.560;9.940;2022-09-09T01:14:27;14.80;99.90
4673;DHT22;61885;53.560;9.940;2022-09-09T01:17:05;14.80;99.90
4673;DHT22;61885;53.560;9.940;2022-09-09T01:19:50;14.70;99.90
4673;DHT22;61885;53.560;9.940;2022-09-09T01:22:28;14.70;99.90
4673;DHT22;61885;53.560;9.940;2022-09-09T01:25:21;14.70;99.90
4673;DHT22;61885;53.560;9.940;2022-09-09T01:27:56;14.70;99.90
4673;DHT22;61885;53.560;9.940;2022-09-09T01:30:28;14.60;99.90
4673;DHT22;61885;53.560;9.940;2022-09-09T01:32:58;14.60;99.90
4673;DHT22;61885;53.560;9.940;2022-09-09T01:35:37;14.50;99.90
4673;DHT22;61885;53.560;9.940;2022-09-09T01:38:09;14.50;99.90
4673;DHT22;61885;53.560;9.940;2022-09-09T01:40:39;14.50;99.90
4673;DHT22;61885;53.560;9.940;2022-09-09T01:43:11;14.50;99.90
4673;DHT22;61885;53.560;9.940;2022-09-09T01:45:41;14.50;99.90
4673;DHT22;61885;53.560;9.940;2022-09-09T01:48:11;14.50;99.90
4673;DHT22;61885;53.560;9.940;2022-09-09T01:50:41;14.50;99.90
4673;DHT22;61885;53.560;9.940;2022-09-09T01:53:11;14.50;99.90
4673;DHT22;61885;53.560;9.940;2022-09-09T01:55:45;14.40;99.90
4673;DHT22;61885;53.560;9.940;2022-09-09T01:58:29;14.40;99.90
4673;DHT22;61885;53.560;9.940;2022-09-09T02:01:06;14.40;99.90
4673;DHT22;61885;53.560;9.940;2022-09-09T02:03:38;14.40;99.90
4673;DHT22;61885;53.560;9.940;2022-09-09T02:06:16;14.30;99.90
4673;DHT22;61885;53.560;9.940;2022-09-09T02:08:50;14.30;99.90
4673;DHT22;61885;53.560;9.940;2022-09-09T02:11:22;14.30;99.90
4673;DHT22;61885;53.560;9.940;2022-09-09T02:14:00;14.30;99.90
4673;DHT22;61885;53.560;9.940;2022-09-09T02:16:34;14.20;99.90
4673;DHT22;61885;53.560;9.940;2022-09-09T02:19:09;14.30;99.90
4673;DHT22;61885;53.560;9.940;2022-09-09T02:21:43;14.30;99.90
4673;DHT22;61885;53.560;9.940;2022-09-09T02:24:16;14.20;99.90
4673;DHT22;61885;53.560;9.940;2022-09-09T02:26:49;14.20;99.90
4673;DHT22;61885;53.560;9.940;2022-09-09T02:29:25;14.10;99.90
4673;DHT22;61885;53.560;9.940;2022-09-09T02:31:57;14.10;99.90
4673;DHT22;61885;53.560;9.940;2022-09-09T02:34:31;14.10;99.90
4673;DHT22;61885;53.560;9.940;2022-09-09T02:37:04;14.10;99.90
4673;DHT22;61885;53.560;9.940;2022-09-09T02:39:35;14.10;99.90
4673;DHT22;61885;53.560;9.940;2022-09-09T02:42:05;14.10;99.90
4673;DHT22;61885;53.560;9.940;2022-09-09T02:44:38;14.00;99.90
4673;DHT22;61885;53.560;9.940;2022-09-09T02:47:21;14.00;99.90
4673;DHT22;61885;53.560;9.940;2022-09-09T02:50:02;14.00;99.90
4673;DHT22;61885;53.560;9.940;2022-09-09T02:52:38;14.00;99.90
4673;DHT22;61885;53.560;9.940;2022-09-09T02:55:17;14.10;99.90
4673;DHT22;61885;53.560;9.940;2022-09-09T02:57:50;14.00;99.90
4673;DHT22;61885;53.560;9.940;2022-09-09T03:00:27;14.00;99.90
4673;DHT22;61885;53.560;9.940;2022-09-09T03:02:57;14.00;99.90
4673;DHT22;61885;53.560;9.940;2022-09-09T03:05:27;14.10;99.90
4673;DHT22;61885;53.560;9.940;2022-09-09T03:07:56;14.00;99.90
4673;DHT22;61885;53.560;9.940;2022-09-09T03:10:26;14.10;99.90
4673;DHT22;61885;53.560;9.940;2022-09-09T03:12:55;14.10;99.90
4673;DHT22;61885;53.560;9.940;2022-09-09T03:15:27;14.00;99.90
4673;DHT22;61885;53.560;9.940;2022-09-09T03:17:57;14.10;99.90
4673;DHT22;61885;53.560;9.940;2022-09-09T03:20:29;14.20;99.90
4673;DHT22;61885;53.560;9.940;2022-09-09T03:23:02;14.00;99.90
4673;DHT22;61885;53.560;9.940;2022-09-09T03:25:31;14.00;99.90
4673;DHT22;61885;53.560;9.940;2022-09-09T03:28:02;14.00;99.90
4673;DHT22;61885;53.560;9.940;2022-09-09T03:30:34;13.90;99.90
4673;DHT22;61885;53.560;9.940;2022-09-09T03:33:04;14.00;99.90
4673;DHT22;61885;53.560;9.940;2022-09-09T03:35:33;14.10;99.90
4673;DHT22;61885;53.560;9.940;2022-09-09T03:38:03;13.90;99.90
4673;DHT22;61885;53.560;9.940;2022-09-09T03:40:32;13.90;99.90
4673;DHT22;61885;53.560;9.940;2022-09-09T03:43:02;13.90;99.90
4673;DHT22;61885;53.560;9.940;2022-09-09T03:45:34;13.90;99.90
4673;DHT22;61885;53.560;9.940;2022-09-09T03:48:06;13.90;99.90
4673;DHT22;61885;53.560;9.940;2022-09-09T03:50:38;13.90;99.90
4673;DHT22;61885;53.560;9.940;2022-09-09T03:53:08;13.90;99.90
4673;DHT22;61885;53.560;9.940;2022-09-09T03:55:38;13.90;99.90
4673;DHT22;61885;53.560;9.940;2022-09-09T03:58:08;13.90;99.90
4673;DHT22;61885;53.560;9.940;2022-09-09T04:00:40;13.80;99.90
4673;DHT22;61885;53.560;9.940;2022-09-09T04:03:11;13.80;99.90
4673;DHT22;61885;53.560;9.940;2022-09-09T04:05:42;13.70;99.90
4673;DHT22;61885;53.560;9.940;2022-09-09T04:08:12;13.80;99.90
4673;DHT22;61885;53.560;9.940;2022-09-09T04:10:41;13.70;99.90
4673;DHT22;61885;53.560;9.940;2022-09-09T04:13:11;13.70;99.90
4673;DHT22;61885;53.560;9.940;2022-09-09T04:15:48;13.80;99.90
4673;DHT22;61885;53.560;9.940;2022-09-09T04:18:20;13.80;99.90
4673;DHT22;61885;53.560;9.940;2022-09-09T04:20:51;13.80;99.90
4673;DHT22;61885;53.560;9.940;2022-09-09T04:23:21;13.70;99.90
4673;DHT22;61885;53.560;9.940;2022-09-09T04:25:52;13.70;99.90
4673;DHT22;61885;53.560;9.940;2022-09-09T04:28:23;13.70;99.90
4673;DHT22;61885;53.560;9.940;2022-09-09T04:30:56;13.70;99.90
4673;DHT22;61885;53.560;9.940;2022-09-09T04:33:26;13.60;99.90
4673;DHT22;61885;53.560;9.940;2022-09-09T04:35:56;13.70;99.90
4673;DHT22;61885;53.560;9.940;2022-09-09T04:38:26;13.70;99.90
4673;DHT22;61885;53.560;9.940;2022-09-09T04:40:55;13.70;99.90
4673;DHT22;61885;53.560;9.940;2022-09-09T04:43:40;13.70;99.90
4673;DHT22;61885;53.560;9.940;2022-09-09T04:46:12;13.70;99.90
4673;DHT22;61885;53.560;9.940;2022-09-09T04:48:43;13.70;99.90
4673;DHT22;61885;53.560;9.940;2022-09-09T04:51:14;13.70;99.90
4673;DHT22;61885;53.560;9.940;2022-09-09T04:53:43;13.80;99.90
4673;DHT22;61885;53.560;9.940;2022-09-09T04:56:15;13.80;99.90
4673;DHT22;61885;53.560;9.940;2022-09-09T04:58:45;13.80;99.90
4673;DHT22;61885;53.560;9.940;2022-09-09T05:01:19;13.80;99.90
4673;DHT22;61885;53.560;9.940;2022-09-09T05:03:49;13.90;99.90
4673;DHT22;61885;53.560;9.940;2022-09-09T05:06:21;13.90;99.90
4673;DHT22;61885;53.560;9.940;2022-09-09T05:08:51;13.90;99.90
4673;DHT22;61885;53.560;9.940;2022-09-09T05:11:22;13.90;99.90
4673;DHT22;61885;53.560;9.940;2022-09-09T05:13:53;13.90;99.90
4673;DHT22;61885;53.560;9.940;2022-09-09T05:16:25;13.90;99.90
4673;DHT22;61885;53.560;9.940;2022-09-09T05:18:55;13.90;99.90
4673;DHT22;61885;53.560;9.940;2022-09-09T05:21:25;14.00;99.90
4673;DHT22;61885;53.560;9.940;2022-09-09T05:23:57;13.90;99.90
4673;DHT22;61885;53.560;9.940;2022-09-09T05:26:27;13.90;99.90
4673;DHT22;61885;53.560;9.940;2022-09-09T05:28:57;13.90;99.90
4673;DHT22;61885;53.560;9.940;2022-09-09T05:31:30;13.90;99.90
4673;DHT22;61885;53.560;9.940;2022-09-09T05:33:59;14.50;99.90
4673;DHT22;61885;53.560;9.940;2022-09-09T05:36:29;14.00;99.90
4673;DHT22;61885;53.560;9.940;2022-09-09T05:38:59;14.00;99.90
4673;DHT22;61885;53.560;9.940;2022-09-09T05:41:28;14.00;99.90
4673;DHT22;61885;53.560;9.940;2022-09-09T05:43:58;14.00;99.90
4673;DHT22;61885;53.560;9.940;2022-09-09T05:46:30;14.10;99.90
4673;DHT22;61885;53.560;9.940;2022-09-09T05:49:00;14.10;99.90
4673;DHT22;61885;53.560;9.940;2022-09-09T05:51:32;14.20;99.90
4673;DHT22;61885;53.560;9.940;2022-09-09T05:54:01;14.20;99.90
4673;DHT22;61885;53.560;9.940;2022-09-09T05:56:31;14.20;99.90
4673;DHT22;61885;53.560;9.940;2022-09-09T05:59:00;14.30;99.90
4673;DHT22;61885;53.560;9.940;2022-09-09T06:01:35;14.30;99.90
4673;DHT22;61885;53.560;9.940;2022-09-09T06:04:07;14.40;99.90
4673;DHT22;61885;53.560;9.940;2022-09-09T06:06:37;14.50;99.90
4673;DHT22;61885;53.560;9.940;2022-09-09T06:09:08;14.50;99.90
4673;DHT22;61885;53.560;9.940;2022-09-09T06:11:42;14.50;99.90
4673;DHT22;61885;53.560;9.940;2022-09-09T06:14:12;14.60;99.90
4673;DHT22;61885;53.560;9.940;2022-09-09T06:16:44;14.60;99.90
4673;DHT22;61885;53.560;9.940;2022-09-09T06:19:13;14.70;99.90
4673;DHT22;61885;53.560;9.940;2022-09-09T06:21:43;14.70;99.90
4673;DHT22;61885;53.560;9.940;2022-09-09T06:24:14;14.70;99.90
4673;DHT22;61885;53.560;9.940;2022-09-09T06:26:45;14.70;99.90
4673;DHT22;61885;53.560;9.940;2022-09-09T06:29:15;14.70;99.90
4673;DHT22;61885;53.560;9.940;2022-09-09T06:31:47;14.70;99.90
4673;DHT22;61885;53.560;9.940;2022-09-09T06:34:16;14.70;99.90
4673;DHT22;61885;53.560;9.940;2022-09-09T06:36:46;14.70;99.90
4673;DHT22;61885;53.560;9.940;2022-09-09T06:39:16;14.80;99.90
4673;DHT22;61885;53.560;9.940;2022-09-09T06:41:47;14.80;99.90
4673;DHT22;61885;53.560;9.940;2022-09-09T06:44:19;14.90;99.90
4673;DHT22;61885;53.560;9.940;2022-09-09T06:46:52;15.00;99.90
4673;DHT22;61885;53.560;9.940;2022-09-09T06:49:21;15.00;99.90
4673;DHT22;61885;53.560;9.940;2022-09-09T06:51:51;15.10;99.90
4673;DHT22;61885;53.560;9.940;2022-09-09T06:54:20;15.10;99.90
4673;DHT22;61885;53.560;9.940;2022-09-09T06:56:50;15.20;99.90
4673;DHT22;61885;53.560;9.940;2022-09-09T06:59:20;15.20;99.90
4673;DHT22;61885;53.560;9.940;2022-09-09T07:01:52;15.40;99.90
4673;DHT22;61885;53.560;9.940;2022-09-09T07:04:21;15.40;99.90
4673;DHT22;61885;53.560;9.940;2022-09-09T07:06:51;15.50;99.90
4673;DHT22;61885;53.560;9.940;2022-09-09T07:09:21;15.60;99.90
4673;DHT22;61885;53.560;9.940;2022-09-09T07:11:51;15.70;99.90
4673;DHT22;61885;53.560;9.940;2022-09-09T07:14:21;15.70;99.90
4673;DHT22;61885;53.560;9.940;2022-09-09T07:16:53;15.70;99.90
4673;DHT22;61885;53.560;9.940;2022-09-09T07:19:23;15.70;99.90
4673;DHT22;61885;53.560;9.940;2022-09-09T07:21:52;15.70;99.90
4673;DHT22;61885;53.560;9.940;2022-09-09T07:24:21;15.80;99.90
4673;DHT22;61885;53.560;9.940;2022-09-09T07:26:51;15.90;99.90
4673;DHT22;61885;53.560;9.940;2022-09-09T07:29:20;15.80;99.90
4673;DHT22;61885;53.560;9.940;2022-09-09T07:31:52;15.80;99.90
4673;DHT22;61885;53.560;9.940;2022-09-09T07:34:23;15.80;99.90
4673;DHT22;61885;53.560;9.940;2022-09-09T07:36:52;15.90;99.90
4673;DHT22;61885;53.560;9.940;2022-09-09T07:39:23;16.00;99.90
4673;DHT22;61885;53.560;9.940;2022-09-09T07:41:53;16.20;99.90
4673;DHT22;61885;53.560;9.940;2022-09-09T07:44:25;16.30;99.90
4673;DHT22;61885;53.560;9.940;2022-09-09T07:47:00;15.20;99.90
4673;DHT22;61885;53.560;9.940;2022-09-09T07:49:29;16.20;99.90
4673;DHT22;61885;53.560;9.940;2022-09-09T07:51:59;16.20;99.90
4673;DHT22;61885;53.560;9.940;2022-09-09T07:54:29;16.30;99.90
4673;DHT22;61885;53.560;9.940;2022-09-09T07:56:59;16.40;99.90
4673;DHT22;61885;53.560;9.940;2022-09-09T07:59:30;16.40;99.90
4673;DHT22;61885;53.560;9.940;2022-09-09T08:02:02;16.40;99.90
4673;DHT22;61885;53.560;9.940;2022-09-09T08:04:32;16.50;99.90
4673;DHT22;61885;53.560;9.940;2022-09-09T08:07:02;16.50;99.90
4673;DHT22;61885;53.560;9.940;2022-09-09T08:09:32;16.60;99.90
4673;DHT22;61885;53.560;9.940;2022-09-09T08:12:02;16.60;99.90
4673;DHT22;61885;53.560;9.940;2022-09-09T08:14:33;16.60;99.90
4673;DHT22;61885;53.560;9.940;2022-09-09T08:17:05;16.70;99.90
4673;DHT22;61885;53.560;9.940;2022-09-09T08:19:35;16.80;99.90
4673;DHT22;61885;53.560;9.940;2022-09-09T08:22:05;16.90;99.90
4673;DHT22;61885;53.560;9.940;2022-09-09T08:24:35;16.80;99.90
4673;DHT22;61885;53.560;9.940;2022-09-09T08:27:04;16.90;99.90
4673;DHT22;61885;53.560;9.940;2022-09-09T08:29:34;17.00;99.90
4673;DHT22;61885;53.560;9.940;2022-09-09T08:32:07;17.00;99.90
4673;DHT22;61885;53.560;9.940;2022-09-09T08:34:36;17.20;99.90
4673;DHT22;61885;53.560;9.940;2022-09-09T08:37:07;17.20;99.90
4673;DHT22;61885;53.560;9.940;2022-09-09T08:39:37;17.20;99.90
4673;DHT22;61885;53.560;9.940;2022-09-09T08:42:27;17.30;99.90
4673;DHT22;61885;53.560;9.940;2022-09-09T08:48:02;17.40;99.90
4673;DHT22;61885;53.560;9.940;2022-09-09T08:50:35;17.40;99.90
4673;DHT22;61885;53.560;9.940;2022-09-09T08:53:11;17.20;99.90
4673;DHT22;61885;53.560;9.940;2022-09-09T08:55:48;17.20;99.90
4673;DHT22;61885;53.560;9.940;2022-09-09T08:58:20;17.30;99.90
4673;DHT22;61885;53.560;9.940;2022-09-09T09:01:12;17.40;99.90
4673;DHT22;61885;53.560;9.940;2022-09-09T09:03:55;17.50;99.90
4673;DHT22;61885;53.560;9.940;2022-09-09T09:06:39;17.50;99.90
4673;DHT22;61885;53.560;9.940;2022-09-09T09:09:20;17.50;99.90
4673;DHT22;61885;53.560;9.940;2022-09-09T09:11:53;17.50;99.90
4673;DHT22;61885;53.560;9.940;2022-09-09T09:14:28;17.70;99.90
4673;DHT22;61885;53.560;9.940;2022-09-09T09:17:02;17.80;99.90
4673;DHT22;61885;53.560;9.940;2022-09-09T09:19:39;18.10;99.90
4673;DHT22;61885;53.560;9.940;2022-09-09T09:22:16;18.20;99.90
4673;DHT22;61885;53.560;9.940;2022-09-09T09:24:51;18.40;99.90
4673;DHT22;61885;53.560;9.940;2022-09-09T09:27:33;18.40;99.90
4673;DHT22;61885;53.560;9.940;2022-09-09T09:30:14;18.60;99.90
4673;DHT22;61885;53.560;9.940;2022-09-09T09:32:50;18.50;99.90
4673;DHT22;61885;53.560;9.940;2022-09-09T09:35:23;18.50;99.90
4673;DHT22;61885;53.560;9.940;2022-09-09T09:37:53;18.50;99.90
4673;DHT22;61885;53.560;9.940;2022-09-09T09:40:23;18.60;99.90
4673;DHT22;61885;53.560;9.940;2022-09-09T09:42:54;18.70;99.90
4673;DHT22;61885;53.560;9.940;2022-09-09T09:45:28;18.70;99.90
4673;DHT22;61885;53.560;9.940;2022-09-09T09:48:04;18.70;99.90
4673;DHT22;61885;53.560;9.940;2022-09-09T09:50:47;18.80;99.90
4673;DHT22;61885;53.560;9.940;2022-09-09T09:53:21;18.60;99.90
4673;DHT22;61885;53.560;9.940;2022-09-09T09:55:56;18.50;99.90
4673;DHT22;61885;53.560;9.940;2022-09-09T09:58:32;18.60;99.90
4673;DHT22;61885;53.560;9.940;2022-09-09T10:01:01;18.60;99.90
4673;DHT22;61885;53.560;9.940;2022-09-09T10:03:33;18.70;98.50
4673;DHT22;61885;53.560;9.940;2022-09-09T10:06:09;18.80;97.70
4673;DHT22;61885;53.560;9.940;2022-09-09T10:08:45;18.90;99.00
4673;DHT22;61885;53.560;9.940;2022-09-09T10:11:33;19.10;99.50
4673;DHT22;61885;53.560;9.940;2022-09-09T10:14:15;19.10;99.90
4673;DHT22;61885;53.560;9.940;2022-09-09T10:17:02;19.00;99.90
4673;DHT22;61885;53.560;9.940;2022-09-09T10:19:36;19.00;99.90
4673;DHT22;61885;53.560;9.940;2022-09-09T10:22:26;18.90;99.90
4673;DHT22;61885;53.560;9.940;2022-09-09T10:25:09;18.80;99.90
4673;DHT22;61885;53.560;9.940;2022-09-09T10:27:52;18.80;99.90
4673;DHT22;61885;53.560;9.940;2022-09-09T10:30:32;18.70;98.00
4673;DHT22;61885;53.560;9.940;2022-09-09T10:33:08;18.70;97.40
4673;DHT22;61885;53.560;9.940;2022-09-09T10:35:44;18.80;99.10
4673;DHT22;61885;53.560;9.940;2022-09-09T10:38:28;18.90;99.90
4673;DHT22;61885;53.560;9.940;2022-09-09T10:41:16;19.10;99.90
4673;DHT22;61885;53.560;9.940;2022-09-09T10:44:17;19.10;99.90
4673;DHT22;61885;53.560;9.940;2022-09-09T10:50:06;19.10;99.70
4673;DHT22;61885;53.560;9.940;2022-09-09T10:52:48;19.10;97.80
4673;DHT22;61885;53.560;9.940;2022-09-09T10:55:24;19.10;99.80
4673;DHT22;61885;53.560;9.940;2022-09-09T10:57:58;19.20;97.80
4673;DHT22;61885;53.560;9.940;2022-09-09T11:00:37;19.30;97.10
4673;DHT22;61885;53.560;9.940;2022-09-09T11:03:13;19.40;93.10
4673;DHT22;61885;53.560;9.940;2022-09-09T11:05:48;19.40;92.30
4673;DHT22;61885;53.560;9.940;2022-09-09T11:08:20;19.40;91.40
4673;DHT22;61885;53.560;9.940;2022-09-09T11:10:59;19.40;89.50
4673;DHT22;61885;53.560;9.940;2022-09-09T11:13:35;19.60;86.20
4673;DHT22;61885;53.560;9.940;2022-09-09T11:16:23;19.60;83.50
4673;DHT22;61885;53.560;9.940;2022-09-09T11:19:00;19.70;74.20
4673;DHT22;61885;53.560;9.940;2022-09-09T11:21:34;19.70;73.70
4673;DHT22;61885;53.560;9.940;2022-09-09T11:24:12;19.80;73.20
4673;DHT22;61885;53.560;9.940;2022-09-09T11:26:47;19.90;69.90
4673;DHT22;61885;53.560;9.940;2022-09-09T11:29:43;20.20;69.40
4673;DHT22;61885;53.560;9.940;2022-09-09T11:32:29;20.50;62.00
4673;DHT22;61885;53.560;9.940;2022-09-09T11:35:14;20.80;61.10
4673;DHT22;61885;53.560;9.940;2022-09-09T11:38:04;20.80;56.40
4673;DHT22;61885;53.560;9.940;2022-09-09T11:40:39;20.80;55.30
4673;DHT22;61885;53.560;9.940;2022-09-09T11:43:14;20.80;51.20
4673;DHT22;61885;53.560;9.940;2022-09-09T11:45:51;21.00;50.20
4673;DHT22;61885;53.560;9.940;2022-09-09T11:48:26;21.00;44.60
4673;DHT22;61885;53.560;9.940;2022-09-09T11:50:58;21.00;40.50
4673;DHT22;61885;53.560;9.940;2022-09-09T11:53:32;20.90;39.60
4673;DHT22;61885;53.560;9.940;2022-09-09T11:56:11;20.90;39.40
4673;DHT22;61885;53.560;9.940;2022-09-09T11:58:56;20.70;41.50
4673;DHT22;61885;53.560;9.940;2022-09-09T12:01:34;20.50;41.60
4673;DHT22;61885;53.560;9.940;2022-09-09T12:07:01;20.50;47.30
4673;DHT22;61885;53.560;9.940;2022-09-09T12:09:42;20.50;46.90
4673;DHT22;61885;53.560;9.940;2022-09-09T12:12:24;20.50;46.70
4673;DHT22;61885;53.560;9.940;2022-09-09T12:17:48;20.50;50.50
4673;DHT22;61885;53.560;9.940;2022-09-09T12:20:22;20.40;52.10
4673;DHT22;61885;53.560;9.940;2022-09-09T12:23:06;20.50;60.90
4673;DHT22;61885;53.560;9.940;2022-09-09T12:25:47;20.40;62.30
4673;DHT22;61885;53.560;9.940;2022-09-09T12:28:20;20.40;62.90
4673;DHT22;61885;53.560;9.940;2022-09-09T12:30:58;20.20;62.90
4673;DHT22;61885;53.560;9.940;2022-09-09T12:33:35;20.30;55.90
4673;DHT22;61885;53.560;9.940;2022-09-09T12:36:11;20.40;47.10
4673;DHT22;61885;53.560;9.940;2022-09-09T12:38:43;20.30;49.50
4673;DHT22;61885;53.560;9.940;2022-09-09T12:41:20;20.40;49.50
4673;DHT22;61885;53.560;9.940;2022-09-09T12:43:50;20.40;51.50
4673;DHT22;61885;53.560;9.940;2022-09-09T12:46:38;20.50;46.50
4673;DHT22;61885;53.560;9.940;2022-09-09T12:49:26;20.40;49.80
4673;DHT22;61885;53.560;9.940;2022-09-09T12:51:57;20.40;56.60
4673;DHT22;61885;53.560;9.940;2022-09-09T12:54:27;20.20;63.20
4673;DHT22;61885;53.560;9.940;2022-09-09T12:56:57;20.00;64.60
4673;DHT22;61885;53.560;9.940;2022-09-09T12:59:35;20.00;69.00
4673;DHT22;61885;53.560;9.940;2022-09-09T13:02:18;19.80;72.80
4673;DHT22;61885;53.560;9.940;2022-09-09T13:04:47;19.80;76.20
4673;DHT22;61885;53.560;9.940;2022-09-09T13:07:18;19.70;77.20
4673;DHT22;61885;53.560;9.940;2022-09-09T13:09:52;19.50;82.90
4673;DHT22;61885;53.560;9.940;2022-09-09T13:12:24;19.30;92.10
4673;DHT22;61885;53.560;9.940;2022-09-09T13:14:56;19.20;96.50
4673;DHT22;61885;53.560;9.940;2022-09-09T13:17:32;19.00;99.80
4673;DHT22;61885;53.560;9.940;2022-09-09T13:20:03;18.90;99.90
4673;DHT22;61885;53.560;9.940;2022-09-09T13:22:37;18.90;99.90
4673;DHT22;61885;53.560;9.940;2022-09-09T13:25:19;18.80;99.90
4673;DHT22;61885;53.560;9.940;2022-09-09T13:27:57;18.20;99.90
4673;DHT22;61885;53.560;9.940;2022-09-09T13:30:29;17.70;99.90
4673;DHT22;61885;53.560;9.940;2022-09-09T13:33:06;17.40;99.90
4673;DHT22;61885;53.560;9.940;2022-09-09T13:35:46;17.10;99.90
4673;DHT22;61885;53.560;9.940;2022-09-09T13:38:16;16.90;99.90
4673;DHT22;61885;53.560;9.940;2022-09-09T13:40:54;16.70;99.90
4673;DHT22;61885;53.560;9.940;2022-09-09T13:43:26;16.60;99.90
4673;DHT22;61885;53.560;9.940;2022-09-09T13:45:57;16.60;99.90
4673;DHT22;61885;53.560;9.940;2022-09-09T13:48:30;16.70;99.90
4673;DHT22;61885;53.560;9.940;2022-09-09T13:51:02;16.60;99.90
4673;DHT22;61885;53.560;9.940;2022-09-09T13:53:32;16.60;99.90
4673;DHT22;61885;53.560;9.940;2022-09-09T13:56:02;16.60;99.90
4673;DHT22;61885;53.560;9.940;2022-09-09T13:58:31;16.60;99.90
4673;DHT22;61885;53.560;9.940;2022-09-09T14:01:01;16.60;99.90
4673;DHT22;61885;53.560;9.940;2022-09-09T14:03:33;16.70;99.90
4673;DHT22;61885;53.560;9.940;2022-09-09T14:06:03;16.70;99.90
4673;DHT22;61885;53.560;9.940;2022-09-09T14:08:34;16.70;99.90
4673;DHT22;61885;53.560;9.940;2022-09-09T14:11:05;16.80;99.90
4673;DHT22;61885;53.560;9.940;2022-09-09T14:13:35;16.80;99.90
4673;DHT22;61885;53.560;9.940;2022-09-09T14:16:06;16.80;99.90
4673;DHT22;61885;53.560;9.940;2022-09-09T14:18:38;16.80;99.90
4673;DHT22;61885;53.560;9.940;2022-09-09T14:21:10;16.90;99.90
4673;DHT22;61885;53.560;9.940;2022-09-09T14:23:40;16.90;99.90
4673;DHT22;61885;53.560;9.940;2022-09-09T14:26:09;16.90;99.90
4673;DHT22;61885;53.560;9.940;2022-09-09T14:28:39;16.90;99.90
4673;DHT22;61885;53.560;9.940;2022-09-09T14:31:09;16.90;99.90
4673;DHT22;61885;53.560;9.940;2022-09-09T14:33:43;16.90;99.90
4673;DHT22;61885;53.560;9.940;2022-09-09T14:36:13;16.80;99.90
4673;DHT22;61885;53.560;9.940;2022-09-09T14:38:42;16.70;99.90
4673;DHT22;61885;53.560;9.940;2022-09-09T14:41:13;16.60;99.90
4673;DHT22;61885;53.560;9.940;2022-09-09T14:43:44;16.60;99.90
4673;DHT22;61885;53.560;9.940;2022-09-09T14:46:15;16.60;99.90
4673;DHT22;61885;53.560;9.940;2022-09-09T14:48:47;16.50;99.90
4673;DHT22;61885;53.560;9.940;2022-09-09T14:51:18;16.50;99.90
4673;DHT22;61885;53.560;9.940;2022-09-09T14:53:51;16.60;99.90
4673;DHT22;61885;53.560;9.940;2022-09-09T14:56:23;16.60;99.90
4673;DHT22;61885;53.560;9.940;2022-09-09T14:58:55;16.60;99.90
4673;DHT22;61885;53.560;9.940;2022-09-09T15:01:25;16.60;99.90
4673;DHT22;61885;53.560;9.940;2022-09-09T15:03:59;16.60;99.90
4673;DHT22;61885;53.560;9.940;2022-09-09T15:06:31;16.60;99.90
4673;DHT22;61885;53.560;9.940;2022-09-09T15:09:01;16.60;99.90
4673;DHT22;61885;53.560;9.940;2022-09-09T15:11:33;16.60;99.90
4673;DHT22;61885;53.560;9.940;2022-09-09T15:14:05;16.50;99.90
4673;DHT22;61885;53.560;9.940;2022-09-09T15:16:35;16.50;99.90
4673;DHT22;61885;53.560;9.940;2022-09-09T15:19:08;16.50;99.90
4673;DHT22;61885;53.560;9.940;2022-09-09T15:21:38;16.40;99.90
4673;DHT22;61885;53.560;9.940;2022-09-09T15:24:08;16.40;99.90
4673;DHT22;61885;53.560;9.940;2022-09-09T15:26:39;16.40;99.90
4673;DHT22;61885;53.560;9.940;2022-09-09T15:29:09;16.50;99.90
4673;DHT22;61885;53.560;9.940;2022-09-09T15:31:39;16.60;99.90
4673;DHT22;61885;53.560;9.940;2022-09-09T15:34:11;16.70;99.90
4673;DHT22;61885;53.560;9.940;2022-09-09T15:36:42;16.70;99.90
4673;DHT22;61885;53.560;9.940;2022-09-09T15:39:14;16.80;99.90
4673;DHT22;61885;53.560;9.940;2022-09-09T15:41:45;16.80;99.90
4673;DHT22;61885;53.560;9.940;2022-09-09T15:44:16;16.80;99.90
4673;DHT22;61885;53.560;9.940;2022-09-09T15:46:49;16.90;99.90
4673;DHT22;61885;53.560;9.940;2022-09-09T15:49:24;16.90;99.90
4673;DHT22;61885;53.560;9.940;2022-09-09T15:51:55;17.00;99.90
4673;DHT22;61885;53.560;9.940;2022-09-09T15:54:32;17.20;99.90
4673;DHT22;61885;53.560;9.940;2022-09-09T15:57:06;17.50;99.90
4673;DHT22;61885;53.560;9.940;2022-09-09T15:59:35;18.10;99.90
4673;DHT22;61885;53.560;9.940;2022-09-09T16:02:06;18.50;99.90
4673;DHT22;61885;53.560;9.940;2022-09-09T16:04:40;19.00;99.90
4673;DHT22;61885;53.560;9.940;2022-09-09T16:07:10;19.20;99.90
4673;DHT22;61885;53.560;9.940;2022-09-09T16:09:40;19.60;99.90
4673;DHT22;61885;53.560;9.940;2022-09-09T16:12:09;19.80;99.90
4673;DHT22;61885;53.560;9.940;2022-09-09T16:14:39;19.90;99.90
4673;DHT22;61885;53.560;9.940;2022-09-09T16:17:09;20.40;99.90
4673;DHT22;61885;53.560;9.940;2022-09-09T16:19:41;21.20;95.40
4673;DHT22;61885;53.560;9.940;2022-09-09T16:22:12;21.50;83.90
4673;DHT22;61885;53.560;9.940;2022-09-09T16:24:43;21.80;67.70
4673;DHT22;61885;53.560;9.940;2022-09-09T16:27:12;22.10;50.20
4673;DHT22;61885;53.560;9.940;2022-09-09T16:29:41;21.90;52.90
4673;DHT22;61885;53.560;9.940;2022-09-09T16:32:11;22.00;52.30
4673;DHT22;61885;53.560;9.940;2022-09-09T16:34:43;21.60;54.50
4673;DHT22;61885;53.560;9.940;2022-09-09T16:37:14;21.20;61.60